Time;durP1;ratioP1;P1;durP2;ratioP2;P2;SDS_P1;SDS_P2;PMS_P1;PMS_P2;Temp;Humidity;BMP_temperature;BMP_pressure;BME280_temperature;BME280_humidity;BME280_pressure;Samples;Min_cycle;Max_cycle;Signal;HPM_P1;HPM_P2
2022/01/12 00:01:16;;;;;;;1.67;1.40;;;1.60;98.20;;;;;;4988207;28;20856;-73
2022/01/12 00:03:44;;;;;;;1.97;1.80;;;1.60;98.20;;;;;;5004423;28;20464;-73
2022/01/12 00:06:11;;;;;;;1.70;1.60;;;1.60;98.20;;;;;;4986937;28;20778;-73
2022/01/12 00:08:38;;;;;;;1.80;1.70;;;1.60;98.20;;;;;;5003800;28;20502;-73
2022/01/12 00:11:07;;;;;;;1.70;1.50;;;1.60;98.20;;;;;;4986055;28;20876;-74
2022/01/12 00:13:35;;;;;;;1.70;1.50;;;1.60;98.20;;;;;;5007271;28;20980;-74
2022/01/12 00:16:04;;;;;;;1.70;1.50;;;1.60;98.20;;;;;;4986449;28;20566;-74
2022/01/12 00:18:32;;;;;;;1.70;1.50;;;1.60;98.20;;;;;;5005586;28;20480;-74
2022/01/12 00:20:59;;;;;;;1.70;1.50;;;1.60;98.20;;;;;;4983697;28;20680;-74
2022/01/12 00:23:26;;;;;;;1.70;1.53;;;1.60;98.20;;;;;;5004868;28;20469;-74
2022/01/12 00:26:00;;;;;;;1.90;1.80;;;1.50;98.20;;;;;;4985447;28;21035;-74
2022/01/12 00:34:00;;;;;;;1.80;1.70;;;1.50;98.20;;;;;;5000351;28;20543;-74
2022/01/12 00:36:27;;;;;;;1.80;1.70;;;1.40;98.20;;;;;;4986868;28;20488;-74
2022/01/12 00:38:54;;;;;;;1.70;1.50;;;1.30;98.20;;;;;;4999270;28;20491;-74
2022/01/12 00:41:21;;;;;;;1.70;1.50;;;1.30;98.20;;;;;;4985473;28;20486;-74
2022/01/12 00:43:56;;;;;;;1.67;1.50;;;1.30;98.20;;;;;;5002081;28;20468;-74
2022/01/12 00:46:25;;;;;;;1.67;1.43;;;1.20;98.20;;;;;;4987386;28;20565;-74
2022/01/12 00:48:54;;;;;;;1.70;1.50;;;1.20;98.20;;;;;;5000623;28;20488;-74
2022/01/12 00:51:21;;;;;;;1.70;1.50;;;1.20;98.20;;;;;;4985903;28;20491;-74
2022/01/12 00:53:48;;;;;;;1.70;1.60;;;1.20;98.20;;;;;;5000451;28;20999;-74
2022/01/12 00:56:15;;;;;;;1.80;1.70;;;1.20;98.20;;;;;;4985538;28;20507;-74
2022/01/12 00:58:42;;;;;;;1.70;1.53;;;1.10;98.20;;;;;;5005166;28;20499;-74
2022/01/12 01:01:08;;;;;;;1.80;1.70;;;1.10;98.20;;;;;;4986194;28;20558;-74
2022/01/12 01:03:37;;;;;;;1.90;1.80;;;1.00;98.20;;;;;;5002585;28;20465;-74
2022/01/12 01:06:06;;;;;;;1.80;1.70;;;1.00;98.20;;;;;;4982816;28;20467;-75
2022/01/12 01:08:33;;;;;;;1.70;1.60;;;0.90;98.20;;;;;;5003707;28;20504;-74
2022/01/12 01:11:00;;;;;;;1.70;1.50;;;0.90;98.20;;;;;;4983900;28;20537;-74
2022/01/12 01:13:34;;;;;;;1.67;1.53;;;0.90;98.20;;;;;;5006313;28;20555;-74
2022/01/12 01:16:13;;;;;;;1.70;1.60;;;0.90;98.20;;;;;;4983775;28;20502;-74
2022/01/12 01:26:57;;;;;;;2.00;1.80;;;0.80;98.20;;;;;;4990506;28;20482;-74
2022/01/12 01:29:24;;;;;;;1.70;1.60;;;0.80;98.20;;;;;;5000760;28;21013;-74
2022/01/12 01:31:51;;;;;;;1.70;1.60;;;0.90;98.20;;;;;;4991017;28;20484;-74
2022/01/12 01:34:19;;;;;;;1.70;1.60;;;0.80;98.20;;;;;;4997141;28;20465;-74
2022/01/12 01:36:48;;;;;;;1.70;1.60;;;0.90;98.20;;;;;;4990267;28;20491;-74
2022/01/12 01:39:18;;;;;;;1.70;1.50;;;0.80;98.20;;;;;;4996649;28;20485;-74
2022/01/12 01:41:51;;;;;;;1.77;1.67;;;0.90;98.20;;;;;;4987763;28;20483;-74
2022/01/12 01:55:19;;;;;;;1.77;1.67;;;0.90;98.20;;;;;;4987271;28;20491;-74
2022/01/12 01:57:46;;;;;;;1.87;1.77;;;0.90;98.20;;;;;;4994753;28;20495;-74
2022/01/12 02:00:18;;;;;;;1.70;1.50;;;0.90;98.20;;;;;;4995009;28;20566;-73
2022/01/12 02:02:46;;;;;;;1.70;1.50;;;1.00;98.20;;;;;;4995193;28;20480;-74
2022/01/12 02:05:14;;;;;;;3.63;3.43;;;1.00;98.20;;;;;;4984926;28;20543;-73
2022/01/12 02:07:41;;;;;;;1.70;1.60;;;1.00;98.20;;;;;;4994298;28;20484;-74
2022/01/12 02:10:09;;;;;;;1.70;1.50;;;1.00;98.20;;;;;;4989180;28;20484;-74
2022/01/12 02:12:36;;;;;;;1.80;1.70;;;1.00;98.20;;;;;;4992358;28;21035;-74
2022/01/12 02:15:13;;;;;;;1.67;1.43;;;1.00;98.20;;;;;;4988482;28;20460;-74
2022/01/12 02:17:52;;;;;;;1.70;1.50;;;1.00;98.20;;;;;;4998382;28;20558;-74
2022/01/12 02:35:09;;;;;;;2.10;1.90;;;1.10;98.20;;;;;;4981798;28;20481;-75
2022/01/12 02:37:12;;;;;;;1.97;1.83;;;1.30;98.20;;;;;;4991789;28;20527;-74
2022/01/12 02:39:55;;;;;;;1.80;1.70;;;1.30;98.20;;;;;;4992258;28;20481;-74
2022/01/12 02:42:23;;;;;;;1.70;1.53;;;1.30;98.20;;;;;;4990397;28;20484;-74
2022/01/12 02:55:49;;;;;;;1.80;1.70;;;1.30;98.20;;;;;;4982899;28;20480;-71
2022/01/12 02:58:16;;;;;;;1.67;1.50;;;1.30;98.20;;;;;;4989524;28;20506;-72
2022/01/12 03:01:02;;;;;;;1.70;1.60;;;1.30;98.20;;;;;;4988477;28;20974;-72
2022/01/12 03:03:32;;;;;;;1.70;1.50;;;1.40;98.20;;;;;;4972682;28;20539;-72
2022/01/12 03:06:01;;;;;;;1.67;1.50;;;1.40;98.20;;;;;;4978677;28;20461;-71
2022/01/12 03:08:29;;;;;;;1.70;1.60;;;1.40;98.20;;;;;;5004536;28;20526;-72
2022/01/12 03:10:57;;;;;;;1.80;1.70;;;1.40;98.20;;;;;;4975959;28;20913;-72
2022/01/12 03:13:24;;;;;;;1.70;1.50;;;1.40;98.20;;;;;;5004497;28;20842;-72
2022/01/12 03:15:50;;;;;;;1.77;1.67;;;1.40;98.20;;;;;;4973740;28;20949;-71
2022/01/12 03:18:17;;;;;;;1.80;1.70;;;1.40;98.20;;;;;;5003580;28;20469;-71
2022/01/12 03:20:45;;;;;;;1.67;1.50;;;1.30;98.20;;;;;;4986305;28;20871;-72
2022/01/12 03:23:14;;;;;;;1.70;1.60;;;1.30;98.20;;;;;;4995880;28;21091;-71
2022/01/12 03:25:41;;;;;;;1.80;1.70;;;1.30;98.20;;;;;;4988128;28;20476;-72
2022/01/12 03:28:09;;;;;;;1.70;1.50;;;1.20;98.20;;;;;;4999350;28;20849;-72
2022/01/12 03:30:51;;;;;;;2.30;2.10;;;1.20;98.20;;;;;;4981644;28;20559;-72
2022/01/12 03:33:32;;;;;;;1.70;1.50;;;1.20;98.20;;;;;;4978006;28;20512;-71
2022/01/12 04:09:01;;;;;;;1.67;1.50;;;1.40;98.20;;;;;;4991837;28;20503;-72
2022/01/12 04:11:27;;;;;;;1.70;1.60;;;1.40;98.20;;;;;;4982802;28;20490;-72
2022/01/12 04:13:54;;;;;;;1.70;1.50;;;1.50;98.20;;;;;;5004110;28;20464;-72
2022/01/12 04:16:21;;;;;;;4.37;4.17;;;1.50;98.20;;;;;;4977723;28;20487;-71
2022/01/12 04:18:48;;;;;;;1.70;1.60;;;1.50;98.20;;;;;;4992800;28;20495;-71
2022/01/12 04:21:18;;;;;;;1.80;1.70;;;1.50;98.20;;;;;;4981240;28;20487;-72
2022/01/12 04:23:44;;;;;;;1.70;1.50;;;1.50;98.20;;;;;;4996347;28;20457;-71
2022/01/12 04:26:13;;;;;;;1.70;1.53;;;1.50;98.20;;;;;;4971569;28;20468;-72
2022/01/12 04:28:42;;;;;;;1.70;1.60;;;1.60;98.20;;;;;;4997934;28;20485;-72
2022/01/12 04:31:10;;;;;;;1.87;1.77;;;1.50;98.20;;;;;;4979694;28;20484;-73
2022/01/12 04:33:38;;;;;;;1.70;1.50;;;1.60;98.20;;;;;;5000928;28;20573;-73
2022/01/12 04:36:07;;;;;;;1.70;1.50;;;1.60;98.20;;;;;;4981059;28;20551;-72
2022/01/12 04:38:38;;;;;;;1.70;1.50;;;1.60;98.20;;;;;;5005068;28;20484;-73
2022/01/12 04:41:07;;;;;;;1.70;1.60;;;1.60;98.20;;;;;;4987205;28;20547;-72
2022/01/12 04:43:36;;;;;;;1.70;1.50;;;1.60;98.20;;;;;;5003911;28;20468;-73
2022/01/12 04:49:07;;;;;;;1.70;1.50;;;1.70;98.20;;;;;;4984697;28;20612;-72
2022/01/12 04:51:35;;;;;;;1.70;1.50;;;1.70;98.20;;;;;;4987886;28;20485;-72
2022/01/12 04:54:03;;;;;;;1.70;1.60;;;1.70;98.20;;;;;;4995585;28;21028;-73
2022/01/12 04:56:30;;;;;;;1.70;1.50;;;1.70;98.20;;;;;;4986639;28;20502;-72
2022/01/12 04:58:58;;;;;;;1.70;1.60;;;1.70;98.20;;;;;;5001061;28;20489;-72
2022/01/12 05:01:27;;;;;;;1.70;1.50;;;1.70;98.20;;;;;;4986312;28;20480;-73
2022/01/12 05:06:47;;;;;;;1.70;1.53;;;1.70;98.20;;;;;;4984086;28;20483;-73
2022/01/12 05:09:29;;;;;;;1.60;1.40;;;1.70;98.20;;;;;;4995041;28;20519;-72
2022/01/12 05:14:46;;;;;;;1.60;1.40;;;1.80;98.20;;;;;;4993324;28;21307;-72
2022/01/12 05:17:13;;;;;;;1.80;1.70;;;1.80;98.20;;;;;;4987919;28;21057;-72
2022/01/12 05:19:40;;;;;;;1.70;1.50;;;1.90;98.20;;;;;;4992311;28;20491;-73
2022/01/12 05:22:07;;;;;;;1.70;1.60;;;1.90;98.20;;;;;;4991941;28;20480;-72
2022/01/12 05:24:35;;;;;;;2.07;1.90;;;1.90;98.20;;;;;;4995334;28;21046;-72
2022/01/12 05:27:02;;;;;;;1.70;1.53;;;1.90;98.20;;;;;;4990892;28;21037;-72
2022/01/12 05:29:29;;;;;;;1.70;1.50;;;1.90;98.20;;;;;;4994064;28;20874;-72
2022/01/12 05:31:55;;;;;;;1.70;1.60;;;2.00;98.20;;;;;;4981174;28;20484;-73
2022/01/12 05:34:25;;;;;;;1.73;1.63;;;2.00;98.20;;;;;;4994242;28;20463;-72
2022/01/12 05:36:52;;;;;;;1.60;1.40;;;2.00;98.20;;;;;;4985360;28;20475;-72
2022/01/12 05:39:18;;;;;;;1.70;1.57;;;2.00;98.20;;;;;;4992286;28;20488;-72
2022/01/12 05:41:46;;;;;;;1.70;1.60;;;2.00;98.20;;;;;;4984525;28;20484;-72
2022/01/12 05:44:13;;;;;;;1.63;1.40;;;2.00;98.20;;;;;;4993855;28;20465;-73
2022/01/12 05:46:42;;;;;;;1.80;1.70;;;2.00;98.20;;;;;;4981587;28;20483;-73
2022/01/12 05:51:53;;;;;;;1.70;1.50;;;2.00;98.20;;;;;;4987876;28;20542;-73
2022/01/12 05:54:20;;;;;;;1.70;1.50;;;2.00;98.20;;;;;;4992701;28;20554;-73
2022/01/12 05:56:48;;;;;;;1.70;1.60;;;2.00;98.20;;;;;;4985171;28;20484;-73
2022/01/12 05:59:15;;;;;;;1.70;1.57;;;2.00;98.20;;;;;;4994956;28;20537;-73
2022/01/12 06:01:42;;;;;;;1.73;1.63;;;2.00;98.20;;;;;;4978357;28;20920;-73
2022/01/12 06:04:08;;;;;;;1.67;1.40;;;2.00;98.20;;;;;;4994180;28;20461;-73
2022/01/12 06:06:35;;;;;;;1.67;1.40;;;2.00;98.20;;;;;;4982732;28;20479;-73
2022/01/12 06:09:03;;;;;;;1.63;1.50;;;2.00;98.20;;;;;;4995812;28;20492;-73
2022/01/12 06:11:29;;;;;;;1.87;1.67;;;2.00;98.20;;;;;;4985415;28;20487;-73
2022/01/12 06:13:59;;;;;;;1.70;1.60;;;2.00;98.20;;;;;;4996722;28;20487;-74
2022/01/12 06:16:25;;;;;;;1.70;1.60;;;2.00;98.20;;;;;;4981924;28;20590;-74
2022/01/12 06:18:52;;;;;;;1.70;1.50;;;2.00;98.20;;;;;;4996299;28;20481;-73
2022/01/12 06:21:19;;;;;;;1.70;1.50;;;2.00;98.20;;;;;;4981867;28;20479;-74
2022/01/12 06:23:46;;;;;;;1.70;1.50;;;2.00;98.20;;;;;;5000369;28;20468;-74
2022/01/12 06:26:13;;;;;;;1.70;1.50;;;1.90;98.20;;;;;;4982199;28;20463;-74
2022/01/12 06:28:42;;;;;;;1.80;1.70;;;1.90;98.20;;;;;;4997894;28;20480;-74
2022/01/12 06:31:12;;;;;;;1.70;1.60;;;1.90;98.20;;;;;;4988867;28;20495;-73
2022/01/12 06:33:41;;;;;;;1.67;1.50;;;1.90;98.20;;;;;;4999389;28;20469;-74
2022/01/12 06:36:08;;;;;;;1.73;1.63;;;1.90;98.20;;;;;;4979834;28;20945;-73
2022/01/12 06:38:35;;;;;;;1.63;1.40;;;1.80;98.20;;;;;;5000792;28;20499;-73
2022/01/12 06:41:02;;;;;;;1.70;1.50;;;1.80;98.20;;;;;;4975480;28;20547;-74
2022/01/12 06:43:29;;;;;;;1.80;1.70;;;1.80;98.20;;;;;;4999635;28;20461;-74
2022/01/12 06:45:56;;;;;;;1.70;1.50;;;1.80;98.20;;;;;;4978382;28;20507;-74
2022/01/12 06:48:25;;;;;;;1.70;1.50;;;1.70;98.20;;;;;;5001648;28;20491;-74
2022/01/12 06:50:51;;;;;;;1.63;1.40;;;1.70;98.20;;;;;;4976562;28;20551;-74
2022/01/12 06:53:18;;;;;;;1.70;1.53;;;1.70;98.20;;;;;;5001151;28;20486;-74
2022/01/12 06:55:45;;;;;;;1.77;1.67;;;1.70;98.20;;;;;;4985595;28;20457;-73
2022/01/12 06:58:12;;;;;;;1.70;1.60;;;1.70;98.20;;;;;;4986251;28;20491;-73
2022/01/12 07:00:39;;;;;;;1.80;1.70;;;1.60;98.20;;;;;;4985837;28;20456;-73
2022/01/12 07:03:06;;;;;;;1.80;1.70;;;1.60;98.20;;;;;;4994081;28;20480;-72
2022/01/12 07:05:34;;;;;;;1.70;1.50;;;1.50;98.20;;;;;;4983414;28;20469;-73
2022/01/12 07:08:01;;;;;;;1.70;1.50;;;1.50;98.20;;;;;;4992732;28;20864;-73
2022/01/12 07:10:28;;;;;;;1.70;1.57;;;1.50;98.20;;;;;;4986915;28;20464;-72
2022/01/12 07:12:55;;;;;;;1.77;1.67;;;1.50;98.20;;;;;;4996661;28;21032;-73
2022/01/12 07:15:21;;;;;;;1.70;1.50;;;1.60;98.20;;;;;;4985211;28;20468;-72
2022/01/12 07:17:49;;;;;;;1.77;1.67;;;1.60;98.20;;;;;;4995485;28;20483;-72
2022/01/12 07:20:16;;;;;;;1.70;1.40;;;1.60;98.20;;;;;;4984846;28;20549;-73
2022/01/12 07:22:44;;;;;;;1.70;1.57;;;1.60;98.20;;;;;;4993666;28;20984;-72
2022/01/12 07:25:11;;;;;;;1.70;1.50;;;1.70;98.20;;;;;;4987580;28;20456;-72
2022/01/12 07:27:40;;;;;;;1.77;1.67;;;1.70;98.20;;;;;;4992168;28;20480;-72
2022/01/12 07:30:08;;;;;;;1.70;1.50;;;1.70;98.20;;;;;;4987799;28;20507;-73
2022/01/12 07:32:34;;;;;;;1.70;1.57;;;1.70;98.20;;;;;;4991276;28;21006;-72
2022/01/12 07:35:01;;;;;;;1.70;1.50;;;1.80;98.20;;;;;;4989116;28;20475;-72
2022/01/12 07:37:28;;;;;;;1.90;1.80;;;1.80;98.20;;;;;;4990852;28;20495;-72
2022/01/12 07:39:56;;;;;;;1.63;1.40;;;1.80;98.20;;;;;;4989492;28;20488;-72
2022/01/12 07:42:23;;;;;;;1.93;1.80;;;1.80;98.20;;;;;;4975571;28;20485;-72
2022/01/12 07:44:50;;;;;;;1.70;1.60;;;1.90;98.20;;;;;;4983834;28;20561;-72
2022/01/12 07:47:17;;;;;;;1.70;1.50;;;1.90;98.20;;;;;;4993926;28;20484;-73
2022/01/12 07:49:43;;;;;;;1.67;1.53;;;1.90;98.20;;;;;;4991137;28;20485;-73
2022/01/12 07:52:10;;;;;;;1.63;1.40;;;1.90;98.20;;;;;;4991450;28;20479;-72
2022/01/12 07:54:37;;;;;;;1.70;1.60;;;2.00;98.20;;;;;;4986808;28;20474;-73
2022/01/12 07:57:05;;;;;;;1.73;1.63;;;2.00;98.20;;;;;;4989294;28;20486;-73
2022/01/12 07:59:32;;;;;;;1.70;1.57;;;2.00;98.20;;;;;;4992738;28;20492;-72
2022/01/12 08:01:58;;;;;;;1.70;1.60;;;2.10;98.20;;;;;;4973634;28;21085;-73
2022/01/12 08:04:25;;;;;;;1.70;1.60;;;2.10;98.20;;;;;;4980951;28;20474;-73
2022/01/12 08:06:52;;;;;;;1.63;1.43;;;2.10;98.20;;;;;;4986901;28;20480;-73
2022/01/12 08:09:19;;;;;;;1.67;1.50;;;2.20;98.20;;;;;;4997695;28;20491;-72
2022/01/12 08:11:45;;;;;;;1.70;1.50;;;2.20;98.20;;;;;;4981245;28;20488;-72
2022/01/12 08:14:15;;;;;;;1.60;1.40;;;2.20;98.20;;;;;;4989571;28;20960;-73
2022/01/12 08:16:42;;;;;;;1.70;1.50;;;2.20;98.20;;;;;;4979200;28;20996;-73
2022/01/12 08:19:09;;;;;;;1.70;1.50;;;2.20;98.20;;;;;;4983683;28;20879;-73
2022/01/12 08:21:36;;;;;;;1.70;1.60;;;2.20;98.20;;;;;;4980640;28;20479;-73
2022/01/12 08:24:02;;;;;;;1.67;1.50;;;2.30;98.20;;;;;;4993348;28;20550;-73
2022/01/12 08:26:29;;;;;;;1.70;1.40;;;2.30;98.20;;;;;;4983619;28;20511;-73
2022/01/12 08:28:56;;;;;;;1.70;1.40;;;2.30;98.20;;;;;;5002521;28;20491;-72
2022/01/12 08:31:24;;;;;;;1.67;1.50;;;2.30;98.20;;;;;;4979245;28;20480;-73
2022/01/12 08:33:51;;;;;;;3.37;3.17;;;2.30;98.20;;;;;;4989091;28;20469;-73
2022/01/12 08:36:17;;;;;;;1.67;1.40;;;2.30;98.20;;;;;;4976586;28;20492;-72
2022/01/12 08:38:44;;;;;;;1.70;1.50;;;2.40;98.20;;;;;;5003571;28;20500;-72
2022/01/12 08:41:11;;;;;;;1.70;1.50;;;2.40;98.20;;;;;;4980977;28;20491;-73
2022/01/12 08:43:38;;;;;;;1.70;1.50;;;2.40;98.20;;;;;;4999426;28;20469;-72
2022/01/12 08:46:05;;;;;;;2.50;2.30;;;2.50;98.20;;;;;;4977441;28;20820;-73
2022/01/12 08:48:33;;;;;;;1.70;1.50;;;2.50;98.20;;;;;;5001504;28;20488;-73
2022/01/12 08:51:01;;;;;;;1.70;1.50;;;2.60;98.20;;;;;;4979719;28;20469;-72
2022/01/12 08:53:28;;;;;;;1.70;1.60;;;2.60;98.20;;;;;;4999418;28;20469;-74
2022/01/12 08:55:57;;;;;;;1.70;1.50;;;2.60;98.20;;;;;;4977855;28;20920;-72
2022/01/12 08:58:23;;;;;;;1.63;1.30;;;2.60;98.20;;;;;;5002297;28;20504;-72
2022/01/12 09:00:51;;;;;;;1.70;1.40;;;2.70;98.20;;;;;;4982961;28;21117;-74
2022/01/12 09:03:17;;;;;;;1.93;1.73;;;2.70;98.20;;;;;;4974157;28;20523;-73
2022/01/12 09:05:46;;;;;;;1.73;1.63;;;2.70;98.20;;;;;;4987841;28;20497;-75
2022/01/12 09:08:12;;;;;;;1.67;1.40;;;2.80;98.20;;;;;;4978006;28;21029;-73
2022/01/12 09:10:39;;;;;;;1.70;1.50;;;2.80;98.20;;;;;;4985869;28;20472;-74
2022/01/12 09:13:06;;;;;;;1.67;1.40;;;2.80;98.20;;;;;;4986220;28;20465;-71
2022/01/12 09:15:33;;;;;;;1.70;1.60;;;2.90;98.20;;;;;;4985669;28;20469;-73
2022/01/12 09:18:00;;;;;;;1.70;1.40;;;2.90;98.20;;;;;;4982422;28;20500;-71
2022/01/12 09:20:28;;;;;;;1.63;1.40;;;2.90;98.20;;;;;;4986604;28;20469;-71
2022/01/12 09:22:56;;;;;;;1.70;1.50;;;2.90;98.20;;;;;;4985622;28;20473;-78
2022/01/12 09:25:23;;;;;;;1.67;1.40;;;3.00;98.20;;;;;;4986617;28;20487;-74
2022/01/12 09:27:50;;;;;;;1.70;1.50;;;3.00;98.20;;;;;;4993925;28;20493;-75
2022/01/12 09:30:18;;;;;;;1.67;1.43;;;3.00;98.20;;;;;;4986341;28;21015;-76
2022/01/12 09:32:46;;;;;;;1.70;1.57;;;3.00;98.20;;;;;;4987571;28;20476;-74
2022/01/12 09:35:13;;;;;;;1.70;1.40;;;3.00;98.20;;;;;;4983812;28;20692;-70
2022/01/12 09:37:40;;;;;;;1.67;1.40;;;3.00;98.20;;;;;;4984131;28;20570;-72
2022/01/12 09:40:10;;;;;;;1.63;1.40;;;3.10;98.20;;;;;;4986612;28;20943;-73
2022/01/12 09:42:37;;;;;;;1.70;1.40;;;3.10;98.20;;;;;;4986164;28;20465;-73
2022/01/12 09:45:06;;;;;;;1.70;1.40;;;3.10;98.20;;;;;;4985695;28;20465;-75
2022/01/12 09:47:34;;;;;;;1.70;1.50;;;3.10;98.20;;;;;;4986298;28;20837;-72
2022/01/12 09:50:02;;;;;;;2.03;1.80;;;3.10;98.20;;;;;;4986249;28;20563;-74
2022/01/12 09:52:29;;;;;;;1.70;1.50;;;3.20;98.20;;;;;;4982490;28;20464;-73
2022/01/12 09:54:56;;;;;;;1.67;1.50;;;3.20;98.20;;;;;;4984115;28;20469;-74
2022/01/12 09:57:24;;;;;;;1.70;1.50;;;3.20;98.20;;;;;;4991399;28;20476;-73
2022/01/12 09:59:51;;;;;;;1.60;1.30;;;3.20;98.20;;;;;;4977589;28;20500;-74
2022/01/12 10:02:20;;;;;;;1.70;1.53;;;3.30;98.20;;;;;;4981056;28;21005;-73
2022/01/12 10:04:47;;;;;;;1.70;1.40;;;3.30;98.20;;;;;;4983643;28;20580;-74
2022/01/12 10:07:14;;;;;;;1.63;1.40;;;3.40;98.20;;;;;;4987034;28;20468;-74
2022/01/12 10:09:44;;;;;;;1.70;1.40;;;3.40;98.20;;;;;;5007392;23;20904;-76
2022/01/12 10:12:14;;;;;;;1.60;1.40;;;3.40;98.20;;;;;;4992590;28;20465;-76
2022/01/12 10:14:45;;;;;;;1.70;1.50;;;3.50;98.20;;;;;;4986032;28;20464;-75
2022/01/12 10:17:13;;;;;;;1.70;1.40;;;3.50;98.20;;;;;;4983899;28;20519;-75
2022/01/12 10:19:41;;;;;;;1.63;1.40;;;3.50;98.20;;;;;;4974908;28;21045;-76
2022/01/12 10:22:10;;;;;;;1.70;1.60;;;3.50;98.20;;;;;;4966640;28;20466;-76
2022/01/12 10:24:39;;;;;;;1.70;1.40;;;3.60;98.20;;;;;;4961912;28;20560;-77
2022/01/12 10:27:13;;;;;;;1.63;1.40;;;3.60;98.20;;;;;;4967404;28;21012;-80
2022/01/12 10:29:40;;;;;;;1.70;1.47;;;3.60;98.20;;;;;;4962896;28;21136;-76
2022/01/12 10:32:09;;;;;;;1.70;1.40;;;3.70;98.20;;;;;;4962218;28;20476;-77
2022/01/12 10:34:41;;;;;;;1.70;1.40;;;3.70;98.20;;;;;;4965736;28;20474;-76
2022/01/12 10:37:09;;;;;;;1.70;1.43;;;3.80;98.20;;;;;;4963866;28;20481;-76
2022/01/12 10:39:40;;;;;;;1.70;1.40;;;3.80;98.20;;;;;;4963700;28;20505;-76
2022/01/12 10:42:09;;;;;;;1.70;1.40;;;3.80;98.20;;;;;;4964956;28;20470;-76
2022/01/12 10:44:37;;;;;;;1.63;1.33;;;3.90;98.20;;;;;;4965927;28;20861;-76
2022/01/12 10:47:16;;;;;;;1.70;1.40;;;3.90;98.20;;;;;;4964723;28;20469;-77
2022/01/12 10:49:44;;;;;;;1.70;1.50;;;3.90;98.20;;;;;;4965035;28;20482;-76
2022/01/12 10:52:12;;;;;;;1.63;1.40;;;3.90;98.20;;;;;;4963667;28;21030;-78
2022/01/12 10:54:47;;;;;;;1.60;1.30;;;3.90;98.20;;;;;;4962831;28;20466;-76
2022/01/12 10:57:21;;;;;;;1.70;1.60;;;4.00;98.20;;;;;;4971498;28;20468;-76
2022/01/12 11:00:02;;;;;;;1.70;1.50;;;4.00;98.20;;;;;;4965530;28;20496;-77
2022/01/12 11:02:31;;;;;;;1.70;1.40;;;4.00;98.20;;;;;;4961539;28;20852;-76
2022/01/12 11:04:59;;;;;;;1.63;1.30;;;4.00;98.20;;;;;;4964429;28;20546;-76
2022/01/12 11:07:26;;;;;;;1.60;1.40;;;4.00;98.20;;;;;;4966233;28;20902;-76
2022/01/12 11:09:56;;;;;;;1.70;1.40;;;4.00;98.20;;;;;;4964872;28;20572;-77
2022/01/12 11:12:23;;;;;;;1.60;1.40;;;4.00;98.20;;;;;;4963940;28;20461;-76
2022/01/12 11:14:50;;;;;;;2.07;1.87;;;4.00;98.20;;;;;;4965332;28;20465;-76
2022/01/12 11:17:17;;;;;;;1.70;1.40;;;4.00;98.20;;;;;;4966077;28;21034;-76
2022/01/12 11:19:53;;;;;;;1.70;1.40;;;4.10;98.20;;;;;;4965864;28;20548;-76
2022/01/12 11:22:35;;;;;;;1.70;1.40;;;4.10;98.20;;;;;;4964751;28;20469;-77
2022/01/12 11:25:02;;;;;;;1.63;1.30;;;4.10;98.20;;;;;;4963894;28;20509;-76
2022/01/12 11:27:29;;;;;;;1.67;1.40;;;4.10;98.20;;;;;;4974077;28;20661;-76
2022/01/12 11:29:57;;;;;;;1.70;1.40;;;4.10;98.20;;;;;;4968695;28;20489;-76
2022/01/12 11:32:25;;;;;;;1.60;1.30;;;4.10;98.20;;;;;;4964307;28;20544;-78
2022/01/12 11:35:03;;;;;;;1.60;1.30;;;4.10;98.20;;;;;;4966212;28;20465;-79
2022/01/12 11:37:30;;;;;;;1.60;1.30;;;4.10;98.20;;;;;;4966193;28;20507;-76
2022/01/12 11:40:08;;;;;;;1.70;1.50;;;4.10;98.20;;;;;;4964927;28;20490;-76
2022/01/12 11:42:36;;;;;;;1.63;1.40;;;4.10;98.20;;;;;;4969897;28;20555;-77
2022/01/12 11:45:04;;;;;;;1.67;1.40;;;4.20;98.20;;;;;;4968992;28;20489;-77
2022/01/12 11:47:31;;;;;;;1.67;1.40;;;4.20;98.20;;;;;;4964267;28;20469;-77
2022/01/12 11:49:58;;;;;;;1.67;1.30;;;4.20;98.20;;;;;;4967960;28;20493;-76
2022/01/12 11:52:31;;;;;;;1.70;1.50;;;4.30;98.20;;;;;;4964624;28;20920;-76
2022/01/12 11:55:09;;;;;;;1.70;1.50;;;4.30;98.20;;;;;;4970199;28;20470;-78
2022/01/12 11:57:41;;;;;;;1.70;1.50;;;4.30;98.20;;;;;;4967446;28;20476;-78
2022/01/12 12:00:12;;;;;;;1.70;1.40;;;4.30;98.20;;;;;;4970273;28;20887;-77
2022/01/12 12:02:41;;;;;;;1.60;1.30;;;4.30;98.20;;;;;;4966306;28;20477;-76
2022/01/12 12:05:11;;;;;;;1.70;1.43;;;4.30;98.20;;;;;;4968332;28;20478;-78
2022/01/12 12:07:47;;;;;;;1.67;1.40;;;4.30;98.20;;;;;;4969876;28;20966;-78
2022/01/12 12:10:16;;;;;;;1.70;1.40;;;4.20;98.20;;;;;;4972939;28;20499;-77
2022/01/12 12:12:43;;;;;;;1.70;1.53;;;4.20;98.20;;;;;;4966041;28;20474;-76
2022/01/12 12:15:12;;;;;;;1.60;1.30;;;4.20;98.20;;;;;;4970566;28;20469;-76
2022/01/12 12:17:42;;;;;;;1.67;1.30;;;4.20;98.20;;;;;;4968726;28;20469;-76
2022/01/12 12:20:11;;;;;;;1.60;1.30;;;4.30;98.20;;;;;;4968168;28;20591;-76
2022/01/12 12:22:40;;;;;;;1.70;1.40;;;4.30;98.20;;;;;;4968409;28;20978;-76
2022/01/12 12:25:11;;;;;;;1.70;1.40;;;4.30;98.20;;;;;;4966090;28;20508;-78
2022/01/12 12:27:40;;;;;;;1.73;1.60;;;4.30;98.20;;;;;;4967976;28;20466;-76
2022/01/12 12:30:09;;;;;;;1.70;1.50;;;4.30;98.20;;;;;;4968815;28;20486;-77
2022/01/12 12:32:38;;;;;;;1.70;1.50;;;4.40;98.20;;;;;;4967441;28;20846;-76
2022/01/12 12:35:08;;;;;;;1.67;1.30;;;4.40;98.20;;;;;;4965044;28;20466;-77
2022/01/12 12:37:38;;;;;;;2.43;2.23;;;4.40;98.20;;;;;;4962831;28;20926;-77
2022/01/12 12:40:30;;;;;;;1.70;1.50;;;4.40;98.20;;;;;;4966885;28;20845;-76
2022/01/12 12:43:03;;;;;;;1.70;1.40;;;4.40;98.20;;;;;;4949082;28;20505;-77
2022/01/12 12:45:40;;;;;;;1.67;1.30;;;4.40;98.20;;;;;;4973099;28;20550;-77
2022/01/12 12:48:08;;;;;;;1.63;1.30;;;4.50;98.20;;;;;;4965533;28;20978;-77
2022/01/12 12:50:39;;;;;;;1.60;1.30;;;4.50;98.20;;;;;;4961928;28;20528;-81
2022/01/12 12:53:06;;;;;;;1.60;1.30;;;4.50;98.20;;;;;;4962826;28;20469;-80
2022/01/12 12:55:40;;;;;;;1.70;1.40;;;4.60;98.20;;;;;;4972964;28;20461;-77
2022/01/12 12:58:08;;;;;;;1.67;1.30;;;4.60;98.20;;;;;;4975793;28;20465;-77
2022/01/12 13:00:36;;;;;;;1.70;1.40;;;4.60;98.20;;;;;;4969708;28;20486;-76
2022/01/12 13:03:04;;;;;;;1.70;1.40;;;4.60;98.20;;;;;;4970013;28;20466;-76
2022/01/12 13:05:34;;;;;;;1.60;1.30;;;4.60;98.20;;;;;;4970318;28;20481;-77
2022/01/12 13:08:01;;;;;;;1.67;1.30;;;4.60;98.20;;;;;;4970835;28;20481;-78
2022/01/12 13:10:30;;;;;;;1.60;1.30;;;4.70;98.20;;;;;;4969304;28;20485;-78
2022/01/12 13:13:00;;;;;;;1.70;1.30;;;4.60;98.20;;;;;;4969803;28;20482;-78
2022/01/12 13:15:28;;;;;;;1.60;1.30;;;4.60;98.20;;;;;;4971652;28;20461;-79
2022/01/12 13:18:01;;;;;;;1.70;1.40;;;4.60;98.20;;;;;;4974617;28;20469;-76
2022/01/12 13:23:14;;;;;;;1.70;1.57;;;4.50;98.20;;;;;;4969052;28;20524;-75
2022/01/12 13:25:41;;;;;;;1.63;1.30;;;4.50;98.20;;;;;;4971673;28;20464;-76
2022/01/12 13:28:10;;;;;;;1.70;1.47;;;4.50;98.20;;;;;;4975669;28;20462;-76
2022/01/12 13:30:48;;;;;;;1.70;1.40;;;4.50;98.20;;;;;;4969571;28;20474;-77
2022/01/12 13:33:23;;;;;;;1.70;1.50;;;4.40;98.20;;;;;;4969471;28;20470;-78
2022/01/12 13:35:50;;;;;;;1.60;1.30;;;4.50;98.20;;;;;;4970109;28;20472;-76
2022/01/12 13:38:25;;;;;;;1.70;1.50;;;4.50;98.20;;;;;;4970313;28;20470;-76
2022/01/12 13:40:55;;;;;;;1.70;1.40;;;4.50;98.20;;;;;;4969162;28;20547;-76
2022/01/12 13:43:24;;;;;;;1.70;1.50;;;4.50;98.20;;;;;;4969465;28;20477;-76
2022/01/12 13:46:00;;;;;;;1.70;1.50;;;4.50;98.20;;;;;;4969614;28;20496;-76
2022/01/12 13:48:31;;;;;;;1.60;1.30;;;4.50;98.20;;;;;;4969670;28;20535;-77
2022/01/12 13:51:02;;;;;;;1.70;1.40;;;4.50;98.20;;;;;;4966774;28;20478;-77
2022/01/12 13:53:34;;;;;;;1.70;1.47;;;4.50;98.20;;;;;;4968027;28;20458;-79
2022/01/12 13:56:03;;;;;;;1.70;1.53;;;4.50;98.20;;;;;;4969038;28;20474;-77
2022/01/12 13:58:35;;;;;;;1.60;1.30;;;4.50;98.20;;;;;;4974237;28;20476;-80
2022/01/12 14:01:07;;;;;;;1.60;1.30;;;4.50;98.20;;;;;;4969728;28;20688;-77
2022/01/12 14:03:43;;;;;;;1.70;1.30;;;4.50;98.20;;;;;;4968401;28;20489;-76
2022/01/12 14:06:20;;;;;;;1.67;1.40;;;4.50;98.20;;;;;;4971629;28;20857;-79
2022/01/12 14:08:52;;;;;;;1.60;1.30;;;4.50;98.20;;;;;;4967450;28;20508;-76
2022/01/12 14:11:21;;;;;;;1.63;1.40;;;4.50;98.20;;;;;;4967792;28;20580;-76
2022/01/12 14:13:51;;;;;;;1.70;1.30;;;4.50;98.20;;;;;;4967798;28;20477;-76
2022/01/12 14:16:18;;;;;;;1.67;1.33;;;4.50;98.20;;;;;;4970361;28;20467;-79
2022/01/12 14:18:45;;;;;;;1.70;1.60;;;4.50;98.20;;;;;;4968997;28;20970;-76
2022/01/12 14:21:16;;;;;;;1.70;1.43;;;4.50;98.20;;;;;;4974903;28;21104;-81
2022/01/12 14:23:43;;;;;;;1.70;1.50;;;4.50;98.20;;;;;;4969403;28;20462;-76
2022/01/12 14:26:22;;;;;;;1.67;1.47;;;4.50;98.20;;;;;;4969156;28;20824;-76
2022/01/12 14:28:50;;;;;;;1.70;1.40;;;4.50;98.20;;;;;;4973383;28;20974;-77
2022/01/12 14:31:17;;;;;;;1.70;1.47;;;4.50;98.20;;;;;;4968224;28;20490;-77
2022/01/12 14:33:44;;;;;;;1.63;1.30;;;4.50;98.20;;;;;;4968600;28;20524;-76
2022/01/12 14:36:10;;;;;;;1.63;1.30;;;4.50;98.20;;;;;;4968777;28;20557;-76
2022/01/12 14:38:37;;;;;;;1.70;1.40;;;4.50;98.20;;;;;;4968391;28;20470;-76
2022/01/12 14:41:04;;;;;;;1.70;1.57;;;4.40;98.20;;;;;;4968628;28;20534;-76
2022/01/12 14:43:32;;;;;;;1.70;1.40;;;4.40;98.20;;;;;;4969958;28;20544;-77